createdAt,value
2023-03-29T00:00:51.052Z,100743.47
2023-03-29T00:03:54.192Z,100736.28
2023-03-29T00:06:57.921Z,100740.59
2023-03-29T00:09:59.818Z,100742.97
2023-03-29T00:13:02.652Z,100745.59
2023-03-29T00:16:04.927Z,100746.81
2023-03-29T00:19:07.560Z,100724.44
2023-03-29T00:22:11.208Z,100735.19
2023-03-29T00:25:14.247Z,100736.34
2023-03-29T00:28:16.081Z,100731.03
2023-03-29T00:31:19.247Z,100732.84
2023-03-29T00:34:21.577Z,100744.28
2023-03-29T00:37:30.058Z,100740.50
2023-03-29T00:40:32.111Z,100739.84
2023-03-29T00:43:56.726Z,100740.50
2023-03-29T00:46:58.654Z,100740.00
2023-03-29T00:50:06.997Z,100728.22
2023-03-29T00:53:13.190Z,100733.69
2023-03-29T00:56:20.090Z,100696.34
2023-03-29T00:59:28.236Z,100735.47
2023-03-29T01:02:35.052Z,100728.16
2023-03-29T01:05:40.744Z,100694.47
2023-03-29T01:08:50.311Z,100735.22
2023-03-29T01:11:55.735Z,100722.91
2023-03-29T01:15:02.402Z,100725.47
2023-03-29T01:18:04.685Z,100721.38
2023-03-29T01:21:17.227Z,100714.31
2023-03-29T01:24:47.662Z,100703.63
2023-03-29T01:27:55.085Z,100706.88
2023-03-29T01:31:03.871Z,100703.25
2023-03-29T01:34:10.657Z,100701.25
2023-03-29T01:37:18.065Z,100695.28
2023-03-29T01:40:20.070Z,100700.78
2023-03-29T01:43:28.119Z,100701.25
2023-03-29T01:46:35.162Z,100680.09
2023-03-29T01:49:42.270Z,100692.84
2023-03-29T01:52:51.488Z,100704.69
2023-03-29T01:55:56.462Z,100706.06
2023-03-29T01:59:04.145Z,100707.47
2023-03-29T02:02:11.682Z,100712.44
2023-03-29T02:05:16.795Z,100717.75
2023-03-29T02:08:21.479Z,100714.53
2023-03-29T02:11:24.955Z,100723.50
2023-03-29T02:14:30.470Z,100713.97
2023-03-29T02:17:32.684Z,100726.44
2023-03-29T02:20:39.455Z,100721.34
2023-03-29T02:23:45.891Z,100726.47
2023-03-29T02:26:48.905Z,100718.56
2023-03-29T02:29:52.290Z,100721.59
2023-03-29T02:32:59.684Z,100715.69
2023-03-29T02:36:08.159Z,100712.16
2023-03-29T02:39:15.642Z,100706.63
2023-03-29T02:42:20.582Z,100713.28
2023-03-29T02:45:25.717Z,100716.28
2023-03-29T02:48:30.152Z,100721.81
2023-03-29T02:51:35.526Z,100724.56
2023-03-29T02:54:43.601Z,100681.00
2023-03-29T02:57:45.603Z,100720.59
2023-03-29T03:00:49.409Z,100730.13
2023-03-29T03:03:51.970Z,100688.88
2023-03-29T03:06:54.307Z,100724.50
2023-03-29T03:09:56.648Z,100736.81
2023-03-29T03:12:59.241Z,100742.19
2023-03-29T03:16:03.292Z,100736.50
2023-03-29T03:19:05.327Z,100730.06
2023-03-29T03:22:10.017Z,100725.84
2023-03-29T03:25:12.087Z,100729.38
2023-03-29T03:28:14.083Z,100729.72
2023-03-29T03:31:17.702Z,100725.44
2023-03-29T03:34:19.649Z,100712.38
2023-03-29T03:37:22.647Z,100725.06
2023-03-29T03:40:26.565Z,100731.41
2023-03-29T03:43:30.056Z,100724.50
2023-03-29T03:46:33.303Z,100732.16
2023-03-29T03:49:35.581Z,100733.00
2023-03-29T03:52:37.966Z,100725.88
2023-03-29T03:55:39.820Z,100738.78
2023-03-29T03:58:42.301Z,100720.13
2023-03-29T04:01:45.558Z,100737.31
2023-03-29T04:04:47.740Z,100739.81
2023-03-29T04:07:50.076Z,100736.34
2023-03-29T04:10:53.353Z,100729.91
2023-03-29T04:13:57.727Z,100734.50
2023-03-29T04:17:01.497Z,100727.50
2023-03-29T04:20:10.353Z,100721.25
2023-03-29T04:23:12.467Z,100724.28
2023-03-29T04:26:14.880Z,100730.22
2023-03-29T04:29:16.992Z,100734.06
2023-03-29T04:32:20.860Z,100732.22
2023-03-29T04:35:22.783Z,100728.75
2023-03-29T04:38:24.888Z,100734.03
2023-03-29T04:41:27.445Z,100716.13
2023-03-29T04:44:30.066Z,100737.94
2023-03-29T04:47:36.321Z,100727.56
2023-03-29T04:50:38.153Z,100734.03
2023-03-29T04:53:40.783Z,100727.72
2023-03-29T04:56:42.699Z,100716.72
2023-03-29T04:59:44.795Z,100727.38
2023-03-29T05:02:48.288Z,100735.28
2023-03-29T05:05:50.843Z,100728.75
2023-03-29T05:08:52.864Z,100736.88
2023-03-29T05:11:54.766Z,100735.94
2023-03-29T05:14:57.445Z,100733.75
2023-03-29T05:18:00.935Z,100733.16
2023-03-29T05:21:04.657Z,100740.69
2023-03-29T05:24:07.026Z,100741.13
2023-03-29T05:27:10.041Z,100737.81
2023-03-29T05:30:13.393Z,100734.09
2023-03-29T05:33:17.666Z,100732.91
2023-03-29T05:36:19.878Z,100717.72
2023-03-29T05:39:23.530Z,100731.16
2023-03-29T05:42:25.421Z,100734.44
2023-03-29T05:45:29.853Z,100733.41
2023-03-29T05:48:33.620Z,100738.47
2023-03-29T05:51:35.728Z,100745.06
2023-03-29T05:54:37.598Z,100752.22
2023-03-29T05:57:39.627Z,100749.19
2023-03-29T06:00:42.924Z,100759.91
2023-03-29T06:03:47.425Z,100666.97
2023-03-29T06:06:49.621Z,100690.53
2023-03-29T06:09:51.520Z,100703.47
2023-03-29T06:12:53.738Z,100713.84
2023-03-29T06:15:55.736Z,100701.06
2023-03-29T06:18:59.375Z,100709.25
2023-03-29T06:22:01.546Z,100694.34
2023-03-29T06:25:04.297Z,100693.97
2023-03-29T06:28:06.181Z,100701.75
2023-03-29T06:31:10.228Z,100764.28
2023-03-29T06:34:13.939Z,100768.56
2023-03-29T06:37:16.676Z,100771.03
2023-03-29T06:40:19.299Z,100772.91
2023-03-29T06:43:21.775Z,100775.84
2023-03-29T06:46:23.782Z,100767.13
2023-03-29T06:49:27.494Z,100775.41
2023-03-29T06:52:29.712Z,100778.06
2023-03-29T06:55:32.152Z,100789.06
2023-03-29T06:58:34.419Z,100781.63
2023-03-29T07:01:37.509Z,100780.22
2023-03-29T07:04:41.998Z,100768.75
2023-03-29T07:08:00.368Z,100760.06
2023-03-29T07:11:03.595Z,100774.59
2023-03-29T07:14:05.740Z,100780.34
2023-03-29T07:17:07.580Z,100779.59
2023-03-29T07:20:14.329Z,100779.00
2023-03-29T07:23:16.187Z,100788.03
2023-03-29T07:26:28.982Z,100795.38
2023-03-29T07:29:31.914Z,100791.06
2023-03-29T07:32:34.459Z,100780.34
2023-03-29T07:35:39.872Z,100798.16
2023-03-29T07:38:41.837Z,100786.41
2023-03-29T07:41:44.380Z,100793.56
2023-03-29T07:44:46.226Z,100800.81
2023-03-29T07:47:49.291Z,100796.28
2023-03-29T07:50:52.734Z,100802.56
2023-03-29T07:53:55.522Z,100807.94
2023-03-29T07:56:57.679Z,100820.19
2023-03-29T07:59:59.677Z,100802.38
2023-03-29T08:03:03.918Z,100817.06
2023-03-29T08:06:07.790Z,100811.16
2023-03-29T08:09:10.294Z,100806.28
2023-03-29T08:12:12.707Z,100809.06
2023-03-29T08:15:16.441Z,100808.06
2023-03-29T08:18:18.359Z,100791.47
2023-03-29T08:21:21.608Z,100807.66
2023-03-29T08:24:23.547Z,100808.97
2023-03-29T08:27:26.024Z,100800.09
2023-03-29T08:30:28.283Z,100808.34
2023-03-29T08:33:30.291Z,100801.81
2023-03-29T08:36:33.702Z,100802.00
2023-03-29T08:39:36.019Z,100793.19
2023-03-29T08:42:55.365Z,100800.31
2023-03-29T08:46:09.032Z,100796.41
2023-03-29T08:49:12.494Z,100797.78
2023-03-29T08:52:23.989Z,100791.16
2023-03-29T08:55:33.341Z,100787.50
2023-03-29T08:58:37.783Z,100790.22
2023-03-29T09:01:40.375Z,100785.28
2023-03-29T09:04:42.659Z,100774.81
2023-03-29T09:07:46.921Z,100774.34
2023-03-29T09:11:04.934Z,100771.59
2023-03-29T09:14:24.958Z,100759.09
2023-03-29T09:17:42.612Z,100735.91
2023-03-29T09:20:53.667Z,100752.75
2023-03-29T09:24:15.677Z,100753.09
2023-03-29T09:27:24.071Z,100739.09
2023-03-29T09:30:29.521Z,100741.06
2023-03-29T09:33:42.844Z,100686.97
2023-03-29T09:36:52.521Z,100728.97
2023-03-29T09:39:57.727Z,100731.22
2023-03-29T09:43:02.360Z,100717.13
2023-03-29T09:46:11.146Z,100727.56
2023-03-29T09:49:17.704Z,100719.03
2023-03-29T09:52:21.040Z,100724.44
2023-03-29T09:55:28.500Z,100706.50
2023-03-29T09:58:34.351Z,100713.63
2023-03-29T10:01:38.833Z,100650.09
2023-03-29T10:04:43.029Z,100687.81
2023-03-29T10:07:47.291Z,100702.38
2023-03-29T10:10:51.161Z,100695.75
2023-03-29T10:13:57.509Z,100689.25
2023-03-29T10:16:59.759Z,100680.31
2023-03-29T10:20:04.661Z,100674.94
2023-03-29T10:23:08.217Z,100685.25
2023-03-29T10:26:23.016Z,100679.56
2023-03-29T10:29:26.501Z,100675.78
2023-03-29T10:32:33.686Z,100651.53
2023-03-29T10:35:40.368Z,100669.47
2023-03-29T10:38:44.271Z,100678.63
2023-03-29T10:41:51.208Z,100672.91
2023-03-29T10:44:56.120Z,100671.72
2023-03-29T10:47:59.130Z,100644.28
2023-03-29T10:51:02.857Z,100667.25
2023-03-29T10:54:13.324Z,100651.56
2023-03-29T10:57:26.521Z,100658.75
2023-03-29T11:00:37.224Z,100659.69
2023-03-29T11:03:55.954Z,100657.91
2023-03-29T11:07:22.794Z,100648.88
2023-03-29T11:10:37.404Z,100633.50
2023-03-29T11:13:49.809Z,100637.94
2023-03-29T11:16:58.295Z,100649.34
2023-03-29T11:20:12.587Z,100637.38
2023-03-29T11:23:29.854Z,100640.28
2023-03-29T11:26:41.185Z,100623.75
2023-03-29T11:29:58.706Z,100627.56
2023-03-29T11:33:14.386Z,100621.88
2023-03-29T11:36:20.906Z,100627.69
2023-03-29T11:39:34.291Z,100621.94
2023-03-29T11:42:41.932Z,100614.97
2023-03-29T11:45:51.468Z,100618.66
2023-03-29T11:49:00.493Z,100601.22
2023-03-29T11:52:10.517Z,100610.47
2023-03-29T11:55:18.183Z,100617.97
2023-03-29T11:58:23.288Z,100601.88
2023-03-29T12:01:31.564Z,100603.56
2023-03-29T12:04:38.788Z,100600.88
2023-03-29T12:07:47.567Z,100588.31
2023-03-29T12:10:55.900Z,100581.16
2023-03-29T12:14:03.761Z,100589.28
2023-03-29T12:17:12.653Z,100574.25
2023-03-29T12:20:19.488Z,100585.50
2023-03-29T12:23:22.647Z,100575.56
2023-03-29T12:26:45.633Z,100565.44
2023-03-29T12:30:20.307Z,100554.72
2023-03-29T12:33:44.202Z,100558.38
2023-03-29T12:37:03.561Z,100559.69
2023-03-29T12:40:13.274Z,100554.47
2023-03-29T12:43:23.331Z,100550.00
2023-03-29T12:46:27.658Z,100535.09
2023-03-29T12:49:35.989Z,100539.31
2023-03-29T12:52:42.097Z,100543.19
2023-03-29T12:55:49.888Z,100539.81
2023-03-29T12:59:17.902Z,100543.34
2023-03-29T13:02:27.399Z,100536.16
2023-03-29T13:05:34.120Z,100546.06
2023-03-29T13:08:38.884Z,100543.00
2023-03-29T13:11:41.452Z,100536.88
2023-03-29T13:14:45.309Z,100517.66
2023-03-29T13:17:57.129Z,100525.72
2023-03-29T13:21:10.086Z,100522.78
2023-03-29T13:24:29.047Z,100528.94
2023-03-29T13:27:39.799Z,100516.19
2023-03-29T13:30:57.061Z,100515.63
2023-03-29T13:34:05.542Z,100513.59
2023-03-29T13:37:22.976Z,100495.44
2023-03-29T13:40:33.237Z,100517.34
2023-03-29T13:43:37.799Z,100517.22
2023-03-29T13:46:42.516Z,100508.22
2023-03-29T13:49:54.944Z,100500.03
2023-03-29T13:53:01.531Z,100498.13
2023-03-29T13:56:06.295Z,100486.91
2023-03-29T13:59:13.563Z,100477.06
2023-03-29T14:02:22.848Z,100477.91
2023-03-29T14:05:30.893Z,100481.38
2023-03-29T14:08:39.732Z,100480.00
2023-03-29T14:11:45.827Z,100434.59
2023-03-29T14:14:58.726Z,100483.81
2023-03-29T14:18:01.630Z,100478.75
2023-03-29T14:21:04.498Z,100476.44
2023-03-29T14:24:12.868Z,100476.72
2023-03-29T14:27:15.906Z,100474.63
2023-03-29T14:30:21.993Z,100461.59
2023-03-29T14:33:28.454Z,100473.94
2023-03-29T14:36:33.389Z,100460.47
2023-03-29T14:39:37.639Z,100465.81
2023-03-29T14:42:41.216Z,100463.16
2023-03-29T14:45:44.001Z,100466.91
2023-03-29T14:48:46.605Z,100458.59
2023-03-29T14:51:50.554Z,100466.22
2023-03-29T14:54:56.940Z,100458.56
2023-03-29T14:58:00.354Z,100455.63
2023-03-29T15:01:05.377Z,100450.34
2023-03-29T15:04:10.334Z,100457.91
2023-03-29T15:07:13.314Z,100463.19
2023-03-29T15:10:19.124Z,100459.31
2023-03-29T15:13:26.120Z,100453.25
2023-03-29T15:16:30.589Z,100455.00
2023-03-29T15:19:33.199Z,100446.84
2023-03-29T15:22:35.302Z,100449.09
2023-03-29T15:25:47.732Z,100447.13
2023-03-29T15:28:55.785Z,100436.59
2023-03-29T15:31:59.248Z,100438.72
2023-03-29T15:35:05.057Z,100438.06
2023-03-29T15:38:07.220Z,100440.56
2023-03-29T15:41:10.685Z,100439.72
2023-03-29T15:44:17.605Z,100434.03
2023-03-29T15:47:20.287Z,100430.63
2023-03-29T15:50:23.625Z,100434.47
2023-03-29T15:53:25.564Z,100422.56
2023-03-29T15:56:32.120Z,100422.97
2023-03-29T15:59:34.313Z,100429.78
2023-03-29T16:02:36.418Z,100425.31
2023-03-29T16:05:39.105Z,100425.34
2023-03-29T16:08:41.935Z,100415.94
2023-03-29T16:11:46.244Z,100419.09
2023-03-29T16:14:48.100Z,100415.88
2023-03-29T16:17:50.030Z,100406.38
2023-03-29T16:20:52.107Z,100417.69
2023-03-29T16:23:53.998Z,100410.84
2023-03-29T16:26:58.419Z,100409.91
2023-03-29T16:30:00.512Z,100412.41
2023-03-29T16:33:06.285Z,100357.81
2023-03-29T16:36:09.542Z,100400.47
2023-03-29T16:39:13.503Z,100355.16
2023-03-29T16:42:17.527Z,100408.34
2023-03-29T16:45:19.944Z,100392.53
2023-03-29T16:48:22.270Z,100418.69
2023-03-29T16:51:25.857Z,100408.72
2023-03-29T16:54:29.749Z,100408.38
2023-03-29T16:57:33.615Z,100420.44
2023-03-29T17:00:35.521Z,100415.03
2023-03-29T17:03:37.712Z,100416.66
2023-03-29T17:06:40.046Z,100401.66
2023-03-29T17:09:42.642Z,100411.31
2023-03-29T17:12:48.086Z,100403.88
2023-03-29T17:15:53.691Z,100397.97
2023-03-29T17:19:00.693Z,100407.22
2023-03-29T17:22:02.993Z,100403.53
2023-03-29T17:25:07.396Z,100370.06
2023-03-29T17:28:11.575Z,100400.84
2023-03-29T17:31:14.254Z,100403.38
2023-03-29T17:34:20.102Z,100420.56
2023-03-29T17:37:23.249Z,100429.25
2023-03-29T17:40:27.203Z,100425.19
2023-03-29T17:43:31.509Z,100430.59
2023-03-29T17:46:33.922Z,100418.38
2023-03-29T17:49:38.029Z,100425.72
2023-03-29T17:52:40.540Z,100436.88
2023-03-29T17:55:43.547Z,100427.06
2023-03-29T17:58:49.142Z,100399.13
2023-03-29T18:01:51.939Z,100432.69
2023-03-29T18:04:54.360Z,100440.34
2023-03-29T18:07:57.078Z,100446.00
2023-03-29T18:11:07.013Z,100446.50
2023-03-29T18:14:10.988Z,100444.22
2023-03-29T18:17:13.372Z,100452.97
2023-03-29T18:20:17.456Z,100453.31
2023-03-29T18:23:19.850Z,100457.88
2023-03-29T18:26:23.971Z,100472.63
2023-03-29T18:29:50.732Z,100463.16
2023-03-29T18:32:53.790Z,100464.50
2023-03-29T18:35:58.119Z,100466.28
2023-03-29T18:39:06.335Z,100469.16
2023-03-29T18:42:10.913Z,100466.53
2023-03-29T18:45:18.154Z,100461.84
2023-03-29T18:48:20.789Z,100456.56
2023-03-29T18:51:26.252Z,100458.03
2023-03-29T18:54:29.629Z,100466.16
2023-03-29T18:57:32.377Z,100457.41
2023-03-29T19:00:37.350Z,100441.94
2023-03-29T19:03:40.894Z,100461.94
2023-03-29T19:06:44.306Z,100460.53
2023-03-29T19:09:47.629Z,100454.28
2023-03-29T19:12:50.835Z,100466.03
2023-03-29T19:15:57.395Z,100464.69
2023-03-29T19:19:01.429Z,100461.47
2023-03-29T19:22:04.992Z,100455.72
2023-03-29T19:25:09.549Z,100463.63
2023-03-29T19:28:13.665Z,100469.00
2023-03-29T19:31:19.721Z,100472.00
2023-03-29T19:34:25.128Z,100466.00
2023-03-29T19:37:28.456Z,100472.50
2023-03-29T19:40:31.580Z,100471.53
2023-03-29T19:43:36.255Z,100470.56
2023-03-29T19:46:40.424Z,100481.13
2023-03-29T19:49:43.411Z,100467.81
2023-03-29T19:52:46.554Z,100477.28
2023-03-29T19:55:50.864Z,100465.53
2023-03-29T19:58:53.768Z,100457.13
2023-03-29T20:01:57.384Z,100487.00
2023-03-29T20:04:59.755Z,100487.53
2023-03-29T20:08:02.124Z,100483.94
2023-03-29T20:11:08.547Z,100481.09
2023-03-29T20:14:12.339Z,100470.72
2023-03-29T20:17:15.905Z,100473.31
2023-03-29T20:20:19.109Z,100466.00
2023-03-29T20:23:20.996Z,100473.09
2023-03-29T20:26:23.553Z,100458.00
2023-03-29T20:29:25.830Z,100465.44
2023-03-29T20:32:30.124Z,100464.31
2023-03-29T20:35:32.423Z,100462.25
2023-03-29T20:38:35.468Z,100456.28
2023-03-29T20:41:38.348Z,100447.41
2023-03-29T20:44:40.432Z,100457.25
2023-03-29T20:47:50.543Z,100455.22
2023-03-29T20:50:52.573Z,100447.88
2023-03-29T20:54:02.355Z,100449.94
2023-03-29T20:57:04.911Z,100451.00
2023-03-29T21:00:12.166Z,100448.16
2023-03-29T21:03:15.691Z,100446.25
2023-03-29T21:06:19.346Z,100447.31
2023-03-29T21:09:23.582Z,100442.19
2023-03-29T21:12:26.642Z,100443.88
2023-03-29T21:15:30.571Z,100445.28
2023-03-29T21:18:36.329Z,100446.59
2023-03-29T21:21:38.171Z,100424.91
2023-03-29T21:24:40.607Z,100448.88
2023-03-29T21:27:42.764Z,100457.88
2023-03-29T21:30:44.645Z,100450.78
2023-03-29T21:33:48.641Z,100452.59
2023-03-29T21:36:50.714Z,100454.97
2023-03-29T21:39:53.312Z,100453.66
2023-03-29T21:42:55.352Z,100444.44
2023-03-29T21:45:57.806Z,100429.22
2023-03-29T21:49:01.574Z,100432.94
2023-03-29T21:52:03.399Z,100443.72
2023-03-29T21:55:06.861Z,100443.38
2023-03-29T21:58:08.788Z,100443.81
2023-03-29T22:01:11.037Z,100446.59
2023-03-29T22:04:22.516Z,100441.94
2023-03-29T22:07:31.304Z,100446.56
2023-03-29T22:10:33.205Z,100432.44
2023-03-29T22:13:35.305Z,100442.28
2023-03-29T22:16:37.539Z,100443.59
2023-03-29T22:19:41.836Z,100440.81
2023-03-29T22:22:46.503Z,100436.13
2023-03-29T22:25:48.411Z,100397.19
2023-03-29T22:28:51.799Z,100439.25
2023-03-29T22:31:53.786Z,100443.72
2023-03-29T22:34:57.066Z,100446.06
2023-03-29T22:37:59.147Z,100441.53
2023-03-29T22:41:01.641Z,100442.69
2023-03-29T22:44:04.225Z,100453.22
2023-03-29T22:47:06.261Z,100448.19
2023-03-29T22:50:10.834Z,100455.41
2023-03-29T22:53:13.536Z,100449.16
2023-03-29T22:56:16.119Z,100452.19
2023-03-29T22:59:18.041Z,100451.41
2023-03-29T23:02:20.008Z,100447.94
2023-03-29T23:05:23.396Z,100450.56
2023-03-29T23:08:26.342Z,100453.53
2023-03-29T23:11:28.207Z,100453.75
2023-03-29T23:14:31.162Z,100457.00
2023-03-29T23:17:33.088Z,100437.72
2023-03-29T23:20:36.760Z,100448.38
2023-03-29T23:23:39.217Z,100448.63
2023-03-29T23:26:41.053Z,100451.59
2023-03-29T23:29:45.350Z,100449.41
2023-03-29T23:32:47.997Z,100421.09
2023-03-29T23:35:51.460Z,100444.91
2023-03-29T23:38:54.142Z,100448.00
2023-03-29T23:41:56.787Z,100443.13
2023-03-29T23:44:59.181Z,100441.56
2023-03-29T23:48:01.283Z,100447.66
2023-03-29T23:51:05.699Z,100448.13
2023-03-29T23:54:08.150Z,100443.84
2023-03-29T23:57:10.954Z,100440.88
